sensor_id;sensor_type;location;lat;lon;timestamp;P1;durP1;ratioP1;P2;durP2;ratioP2
8333;SDS011;4204;43.004;23.052;2023-05-07T00:00:43;9.17;;;5.60;;
8333;SDS011;4204;43.004;23.052;2023-05-07T00:03:11;6.03;;;5.07;;
8333;SDS011;4204;43.004;23.052;2023-05-07T00:05:39;7.33;;;4.90;;
8333;SDS011;4204;43.004;23.052;2023-05-07T00:08:07;6.20;;;5.50;;
8333;SDS011;4204;43.004;23.052;2023-05-07T00:10:34;6.03;;;4.70;;
8333;SDS011;4204;43.004;23.052;2023-05-07T00:13:01;8.50;;;5.00;;
8333;SDS011;4204;43.004;23.052;2023-05-07T00:15:30;6.07;;;5.17;;
8333;SDS011;4204;43.004;23.052;2023-05-07T00:17:57;7.13;;;5.20;;
8333;SDS011;4204;43.004;23.052;2023-05-07T00:20:25;6.07;;;5.37;;
8333;SDS011;4204;43.004;23.052;2023-05-07T00:22:52;5.80;;;5.20;;
8333;SDS011;4204;43.004;23.052;2023-05-07T00:25:19;6.97;;;5.07;;
8333;SDS011;4204;43.004;23.052;2023-05-07T00:27:48;7.67;;;5.27;;
8333;SDS011;4204;43.004;23.052;2023-05-07T00:30:15;8.23;;;5.57;;
8333;SDS011;4204;43.004;23.052;2023-05-07T00:32:44;7.07;;;5.27;;
8333;SDS011;4204;43.004;23.052;2023-05-07T00:35:11;6.50;;;5.73;;
8333;SDS011;4204;43.004;23.052;2023-05-07T00:37:39;7.30;;;5.87;;
8333;SDS011;4204;43.004;23.052;2023-05-07T00:40:06;8.47;;;6.20;;
8333;SDS011;4204;43.004;23.052;2023-05-07T00:42:34;8.47;;;6.10;;
8333;SDS011;4204;43.004;23.052;2023-05-07T00:45:01;7.87;;;5.97;;
8333;SDS011;4204;43.004;23.052;2023-05-07T00:47:30;7.13;;;5.93;;
8333;SDS011;4204;43.004;23.052;2023-05-07T00:49:59;8.67;;;5.80;;
8333;SDS011;4204;43.004;23.052;2023-05-07T00:52:26;6.70;;;5.30;;
8333;SDS011;4204;43.004;23.052;2023-05-07T00:54:54;6.67;;;5.43;;
8333;SDS011;4204;43.004;23.052;2023-05-07T01:01:07;9.67;;;5.40;;
8333;SDS011;4204;43.004;23.052;2023-05-07T01:03:34;7.90;;;5.47;;
8333;SDS011;4204;43.004;23.052;2023-05-07T01:06:03;7.30;;;5.87;;
8333;SDS011;4204;43.004;23.052;2023-05-07T01:08:31;6.30;;;5.13;;
8333;SDS011;4204;43.004;23.052;2023-05-07T01:11:00;7.30;;;5.20;;
8333;SDS011;4204;43.004;23.052;2023-05-07T01:13:28;5.93;;;4.90;;
8333;SDS011;4204;43.004;23.052;2023-05-07T01:15:55;5.90;;;5.00;;
8333;SDS011;4204;43.004;23.052;2023-05-07T01:18:23;6.77;;;4.87;;
8333;SDS011;4204;43.004;23.052;2023-05-07T01:20:51;8.23;;;5.30;;
8333;SDS011;4204;43.004;23.052;2023-05-07T01:23:20;4.90;;;4.40;;
8333;SDS011;4204;43.004;23.052;2023-05-07T01:25:51;5.53;;;4.57;;
8333;SDS011;4204;43.004;23.052;2023-05-07T01:28:20;6.07;;;5.00;;
8333;SDS011;4204;43.004;23.052;2023-05-07T01:30:49;6.87;;;4.50;;
8333;SDS011;4204;43.004;23.052;2023-05-07T01:33:18;5.57;;;4.50;;
8333;SDS011;4204;43.004;23.052;2023-05-07T01:35:47;5.10;;;4.60;;
8333;SDS011;4204;43.004;23.052;2023-05-07T01:38:15;5.97;;;4.43;;
8333;SDS011;4204;43.004;23.052;2023-05-07T01:40:44;5.30;;;4.77;;
8333;SDS011;4204;43.004;23.052;2023-05-07T01:43:12;5.20;;;4.70;;
8333;SDS011;4204;43.004;23.052;2023-05-07T01:45:39;6.60;;;4.90;;
8333;SDS011;4204;43.004;23.052;2023-05-07T01:48:07;7.27;;;5.20;;
8333;SDS011;4204;43.004;23.052;2023-05-07T01:50:35;5.97;;;5.03;;
8333;SDS011;4204;43.004;23.052;2023-05-07T01:53:03;7.17;;;5.20;;
8333;SDS011;4204;43.004;23.052;2023-05-07T01:55:30;5.27;;;4.77;;
8333;SDS011;4204;43.004;23.052;2023-05-07T01:57:59;6.33;;;5.07;;
8333;SDS011;4204;43.004;23.052;2023-05-07T02:00:27;6.70;;;5.00;;
8333;SDS011;4204;43.004;23.052;2023-05-07T02:02:54;5.83;;;5.07;;
8333;SDS011;4204;43.004;23.052;2023-05-07T02:05:31;5.33;;;4.70;;
8333;SDS011;4204;43.004;23.052;2023-05-07T02:08:06;7.00;;;5.07;;
8333;SDS011;4204;43.004;23.052;2023-05-07T02:10:34;6.33;;;5.07;;
8333;SDS011;4204;43.004;23.052;2023-05-07T02:13:03;5.50;;;4.53;;
8333;SDS011;4204;43.004;23.052;2023-05-07T02:15:30;5.33;;;4.83;;
8333;SDS011;4204;43.004;23.052;2023-05-07T02:18:02;5.67;;;4.60;;
8333;SDS011;4204;43.004;23.052;2023-05-07T02:20:30;5.23;;;4.40;;
8333;SDS011;4204;43.004;23.052;2023-05-07T02:22:57;7.27;;;4.57;;
8333;SDS011;4204;43.004;23.052;2023-05-07T02:25:27;7.17;;;5.00;;
8333;SDS011;4204;43.004;23.052;2023-05-07T02:27:55;5.93;;;5.13;;
8333;SDS011;4204;43.004;23.052;2023-05-07T02:30:32;8.60;;;4.50;;
8333;SDS011;4204;43.004;23.052;2023-05-07T02:32:59;6.90;;;5.43;;
8333;SDS011;4204;43.004;23.052;2023-05-07T02:35:27;7.33;;;5.67;;
8333;SDS011;4204;43.004;23.052;2023-05-07T02:37:54;6.77;;;5.67;;
8333;SDS011;4204;43.004;23.052;2023-05-07T02:40:23;7.77;;;5.93;;
8333;SDS011;4204;43.004;23.052;2023-05-07T02:42:51;8.03;;;6.10;;
8333;SDS011;4204;43.004;23.052;2023-05-07T02:45:18;7.60;;;6.80;;
8333;SDS011;4204;43.004;23.052;2023-05-07T02:47:48;8.23;;;6.17;;
8333;SDS011;4204;43.004;23.052;2023-05-07T02:50:15;7.37;;;5.67;;
8333;SDS011;4204;43.004;23.052;2023-05-07T02:52:42;8.10;;;5.43;;
8333;SDS011;4204;43.004;23.052;2023-05-07T02:55:10;6.83;;;5.53;;
8333;SDS011;4204;43.004;23.052;2023-05-07T02:57:37;6.43;;;5.37;;
8333;SDS011;4204;43.004;23.052;2023-05-07T03:00:12;7.27;;;5.57;;
8333;SDS011;4204;43.004;23.052;2023-05-07T03:02:45;9.53;;;5.33;;
8333;SDS011;4204;43.004;23.052;2023-05-07T03:05:13;7.53;;;5.50;;
8333;SDS011;4204;43.004;23.052;2023-05-07T03:07:41;7.10;;;5.43;;
8333;SDS011;4204;43.004;23.052;2023-05-07T03:10:11;5.80;;;5.03;;
8333;SDS011;4204;43.004;23.052;2023-05-07T03:12:38;8.53;;;5.57;;
8333;SDS011;4204;43.004;23.052;2023-05-07T03:15:06;5.77;;;4.73;;
8333;SDS011;4204;43.004;23.052;2023-05-07T03:17:34;6.57;;;4.83;;
8333;SDS011;4204;43.004;23.052;2023-05-07T03:20:01;5.73;;;4.60;;
8333;SDS011;4204;43.004;23.052;2023-05-07T03:22:30;6.27;;;4.97;;
8333;SDS011;4204;43.004;23.052;2023-05-07T03:24:58;10.37;;;4.93;;
8333;SDS011;4204;43.004;23.052;2023-05-07T03:27:25;7.17;;;4.77;;
8333;SDS011;4204;43.004;23.052;2023-05-07T03:29:54;7.60;;;5.53;;
8333;SDS011;4204;43.004;23.052;2023-05-07T03:32:21;5.47;;;4.80;;
8333;SDS011;4204;43.004;23.052;2023-05-07T03:34:48;6.47;;;5.27;;
8333;SDS011;4204;43.004;23.052;2023-05-07T03:37:16;7.03;;;5.23;;
8333;SDS011;4204;43.004;23.052;2023-05-07T03:39:44;5.47;;;4.90;;
8333;SDS011;4204;43.004;23.052;2023-05-07T03:42:13;7.17;;;4.80;;
8333;SDS011;4204;43.004;23.052;2023-05-07T03:44:40;6.50;;;5.20;;
8333;SDS011;4204;43.004;23.052;2023-05-07T03:47:07;4.57;;;4.17;;
8333;SDS011;4204;43.004;23.052;2023-05-07T03:49:36;5.93;;;4.87;;
8333;SDS011;4204;43.004;23.052;2023-05-07T03:52:04;9.93;;;5.20;;
8333;SDS011;4204;43.004;23.052;2023-05-07T03:54:32;5.57;;;4.97;;
8333;SDS011;4204;43.004;23.052;2023-05-07T03:57:01;6.23;;;5.33;;
8333;SDS011;4204;43.004;23.052;2023-05-07T03:59:28;8.20;;;6.83;;
8333;SDS011;4204;43.004;23.052;2023-05-07T04:01:57;11.60;;;7.07;;
8333;SDS011;4204;43.004;23.052;2023-05-07T04:04:26;10.47;;;7.10;;
8333;SDS011;4204;43.004;23.052;2023-05-07T04:06:55;10.30;;;7.57;;
8333;SDS011;4204;43.004;23.052;2023-05-07T04:09:23;7.43;;;5.87;;
8333;SDS011;4204;43.004;23.052;2023-05-07T04:11:51;7.67;;;5.80;;
8333;SDS011;4204;43.004;23.052;2023-05-07T04:14:20;10.70;;;6.50;;
8333;SDS011;4204;43.004;23.052;2023-05-07T04:16:48;7.67;;;6.40;;
8333;SDS011;4204;43.004;23.052;2023-05-07T04:19:16;8.07;;;6.47;;
8333;SDS011;4204;43.004;23.052;2023-05-07T04:21:45;9.67;;;6.63;;
8333;SDS011;4204;43.004;23.052;2023-05-07T04:24:12;11.13;;;7.33;;
8333;SDS011;4204;43.004;23.052;2023-05-07T04:26:40;11.40;;;7.27;;
8333;SDS011;4204;43.004;23.052;2023-05-07T04:29:08;9.77;;;6.07;;
8333;SDS011;4204;43.004;23.052;2023-05-07T04:31:36;6.90;;;5.37;;
8333;SDS011;4204;43.004;23.052;2023-05-07T04:34:04;7.40;;;6.07;;
8333;SDS011;4204;43.004;23.052;2023-05-07T04:36:31;8.97;;;5.47;;
8333;SDS011;4204;43.004;23.052;2023-05-07T04:39:03;6.97;;;5.43;;
8333;SDS011;4204;43.004;23.052;2023-05-07T04:41:30;5.90;;;5.30;;
8333;SDS011;4204;43.004;23.052;2023-05-07T04:43:58;6.53;;;5.57;;
8333;SDS011;4204;43.004;23.052;2023-05-07T04:46:27;6.40;;;5.67;;
8333;SDS011;4204;43.004;23.052;2023-05-07T04:48:58;7.83;;;5.80;;
8333;SDS011;4204;43.004;23.052;2023-05-07T04:51:25;6.80;;;5.50;;
8333;SDS011;4204;43.004;23.052;2023-05-07T04:53:54;6.77;;;5.70;;
8333;SDS011;4204;43.004;23.052;2023-05-07T04:56:21;8.30;;;6.00;;
8333;SDS011;4204;43.004;23.052;2023-05-07T04:58:48;8.20;;;5.87;;
8333;SDS011;4204;43.004;23.052;2023-05-07T05:01:19;9.87;;;6.17;;
8333;SDS011;4204;43.004;23.052;2023-05-07T05:03:46;6.77;;;6.07;;
8333;SDS011;4204;43.004;23.052;2023-05-07T05:06:15;7.00;;;6.17;;
8333;SDS011;4204;43.004;23.052;2023-05-07T05:08:42;7.13;;;6.43;;
8333;SDS011;4204;43.004;23.052;2023-05-07T05:11:10;8.40;;;7.00;;
8333;SDS011;4204;43.004;23.052;2023-05-07T05:13:37;8.57;;;6.97;;
8333;SDS011;4204;43.004;23.052;2023-05-07T05:16:11;10.37;;;8.00;;
8333;SDS011;4204;43.004;23.052;2023-05-07T05:18:39;15.10;;;9.53;;
8333;SDS011;4204;43.004;23.052;2023-05-07T05:21:08;11.20;;;8.70;;
8333;SDS011;4204;43.004;23.052;2023-05-07T05:23:37;12.47;;;8.07;;
8333;SDS011;4204;43.004;23.052;2023-05-07T05:26:05;10.60;;;8.57;;
8333;SDS011;4204;43.004;23.052;2023-05-07T05:28:33;10.27;;;8.90;;
8333;SDS011;4204;43.004;23.052;2023-05-07T05:31:02;11.43;;;9.33;;
8333;SDS011;4204;43.004;23.052;2023-05-07T05:33:33;11.90;;;9.90;;
8333;SDS011;4204;43.004;23.052;2023-05-07T05:36:03;12.53;;;10.33;;
8333;SDS011;4204;43.004;23.052;2023-05-07T05:38:32;11.20;;;10.00;;
8333;SDS011;4204;43.004;23.052;2023-05-07T05:41:01;11.03;;;8.63;;
8333;SDS011;4204;43.004;23.052;2023-05-07T05:43:30;12.30;;;10.93;;
8333;SDS011;4204;43.004;23.052;2023-05-07T05:45:58;11.50;;;9.33;;
8333;SDS011;4204;43.004;23.052;2023-05-07T05:48:26;9.87;;;8.47;;
8333;SDS011;4204;43.004;23.052;2023-05-07T05:50:54;9.20;;;8.20;;
8333;SDS011;4204;43.004;23.052;2023-05-07T05:53:21;11.83;;;8.90;;
8333;SDS011;4204;43.004;23.052;2023-05-07T05:55:49;8.73;;;7.60;;
8333;SDS011;4204;43.004;23.052;2023-05-07T05:58:19;10.73;;;8.27;;
8333;SDS011;4204;43.004;23.052;2023-05-07T06:00:51;9.00;;;8.00;;
8333;SDS011;4204;43.004;23.052;2023-05-07T06:03:22;10.23;;;7.60;;
8333;SDS011;4204;43.004;23.052;2023-05-07T06:05:50;9.00;;;6.73;;
8333;SDS011;4204;43.004;23.052;2023-05-07T06:08:19;7.70;;;6.83;;
8333;SDS011;4204;43.004;23.052;2023-05-07T06:10:46;8.83;;;6.70;;
8333;SDS011;4204;43.004;23.052;2023-05-07T06:13:14;8.77;;;7.87;;
8333;SDS011;4204;43.004;23.052;2023-05-07T06:15:43;7.40;;;6.70;;
8333;SDS011;4204;43.004;23.052;2023-05-07T06:18:12;7.80;;;7.00;;
8333;SDS011;4204;43.004;23.052;2023-05-07T06:20:40;8.53;;;7.20;;
8333;SDS011;4204;43.004;23.052;2023-05-07T06:23:13;9.57;;;7.17;;
8333;SDS011;4204;43.004;23.052;2023-05-07T06:25:40;8.13;;;7.33;;
8333;SDS011;4204;43.004;23.052;2023-05-07T06:28:08;9.53;;;7.03;;
8333;SDS011;4204;43.004;23.052;2023-05-07T06:30:40;8.63;;;7.53;;
8333;SDS011;4204;43.004;23.052;2023-05-07T06:33:08;8.43;;;7.53;;
8333;SDS011;4204;43.004;23.052;2023-05-07T06:35:36;8.53;;;7.63;;
8333;SDS011;4204;43.004;23.052;2023-05-07T06:38:04;9.97;;;7.43;;
8333;SDS011;4204;43.004;23.052;2023-05-07T06:40:31;9.13;;;7.60;;
8333;SDS011;4204;43.004;23.052;2023-05-07T06:43:00;9.77;;;8.17;;
8333;SDS011;4204;43.004;23.052;2023-05-07T06:45:35;8.57;;;7.47;;
8333;SDS011;4204;43.004;23.052;2023-05-07T06:48:04;8.53;;;7.53;;
8333;SDS011;4204;43.004;23.052;2023-05-07T06:50:41;8.53;;;7.60;;
8333;SDS011;4204;43.004;23.052;2023-05-07T06:53:08;7.60;;;6.90;;
8333;SDS011;4204;43.004;23.052;2023-05-07T06:55:36;7.67;;;6.97;;
8333;SDS011;4204;43.004;23.052;2023-05-07T06:58:04;9.67;;;7.17;;
8333;SDS011;4204;43.004;23.052;2023-05-07T07:00:32;7.40;;;6.70;;
8333;SDS011;4204;43.004;23.052;2023-05-07T07:02:59;7.90;;;6.97;;
8333;SDS011;4204;43.004;23.052;2023-05-07T07:05:28;8.87;;;7.27;;
8333;SDS011;4204;43.004;23.052;2023-05-07T07:07:57;9.57;;;6.83;;
8333;SDS011;4204;43.004;23.052;2023-05-07T07:10:25;8.00;;;6.40;;
8333;SDS011;4204;43.004;23.052;2023-05-07T07:12:54;7.43;;;6.63;;
8333;SDS011;4204;43.004;23.052;2023-05-07T07:15:22;8.27;;;6.43;;
8333;SDS011;4204;43.004;23.052;2023-05-07T07:17:51;8.83;;;7.93;;
8333;SDS011;4204;43.004;23.052;2023-05-07T07:20:18;7.63;;;6.90;;
8333;SDS011;4204;43.004;23.052;2023-05-07T07:22:46;7.70;;;6.50;;
8333;SDS011;4204;43.004;23.052;2023-05-07T07:25:17;7.23;;;5.83;;
8333;SDS011;4204;43.004;23.052;2023-05-07T07:27:44;8.27;;;6.67;;
8333;SDS011;4204;43.004;23.052;2023-05-07T07:30:13;6.70;;;6.00;;
8333;SDS011;4204;43.004;23.052;2023-05-07T07:32:43;7.80;;;6.50;;
8333;SDS011;4204;43.004;23.052;2023-05-07T07:35:10;7.17;;;6.47;;
8333;SDS011;4204;43.004;23.052;2023-05-07T07:37:38;6.83;;;6.13;;
8333;SDS011;4204;43.004;23.052;2023-05-07T07:40:06;7.70;;;6.83;;
8333;SDS011;4204;43.004;23.052;2023-05-07T07:42:37;8.40;;;6.27;;
8333;SDS011;4204;43.004;23.052;2023-05-07T07:45:05;6.50;;;5.80;;
8333;SDS011;4204;43.004;23.052;2023-05-07T07:47:35;7.00;;;6.40;;
8333;SDS011;4204;43.004;23.052;2023-05-07T07:50:02;8.53;;;6.37;;
8333;SDS011;4204;43.004;23.052;2023-05-07T07:52:33;7.47;;;6.00;;
8333;SDS011;4204;43.004;23.052;2023-05-07T07:55:00;7.47;;;6.17;;
8333;SDS011;4204;43.004;23.052;2023-05-07T07:57:29;7.60;;;6.17;;
8333;SDS011;4204;43.004;23.052;2023-05-07T07:59:58;7.17;;;6.07;;
8333;SDS011;4204;43.004;23.052;2023-05-07T08:02:27;7.03;;;6.33;;
8333;SDS011;4204;43.004;23.052;2023-05-07T08:04:55;7.60;;;5.60;;
8333;SDS011;4204;43.004;23.052;2023-05-07T08:07:22;7.20;;;5.93;;
8333;SDS011;4204;43.004;23.052;2023-05-07T08:09:50;11.23;;;5.80;;
8333;SDS011;4204;43.004;23.052;2023-05-07T08:12:21;9.23;;;6.10;;
8333;SDS011;4204;43.004;23.052;2023-05-07T08:14:48;11.77;;;6.60;;
8333;SDS011;4204;43.004;23.052;2023-05-07T08:17:17;7.23;;;5.80;;
8333;SDS011;4204;43.004;23.052;2023-05-07T08:19:45;7.13;;;5.67;;
8333;SDS011;4204;43.004;23.052;2023-05-07T08:22:14;5.93;;;5.27;;
8333;SDS011;4204;43.004;23.052;2023-05-07T08:24:42;8.40;;;5.77;;
8333;SDS011;4204;43.004;23.052;2023-05-07T08:27:10;6.10;;;5.43;;
8333;SDS011;4204;43.004;23.052;2023-05-07T08:29:40;5.90;;;5.10;;
8333;SDS011;4204;43.004;23.052;2023-05-07T08:32:07;6.53;;;5.47;;
8333;SDS011;4204;43.004;23.052;2023-05-07T08:34:36;6.33;;;5.67;;
8333;SDS011;4204;43.004;23.052;2023-05-07T08:37:05;6.10;;;5.57;;
8333;SDS011;4204;43.004;23.052;2023-05-07T08:39:33;5.30;;;4.80;;
8333;SDS011;4204;43.004;23.052;2023-05-07T08:42:01;5.73;;;5.13;;
8333;SDS011;4204;43.004;23.052;2023-05-07T08:44:33;5.90;;;5.13;;
8333;SDS011;4204;43.004;23.052;2023-05-07T08:47:00;5.77;;;5.07;;
8333;SDS011;4204;43.004;23.052;2023-05-07T08:49:29;6.13;;;5.07;;
8333;SDS011;4204;43.004;23.052;2023-05-07T08:51:58;7.17;;;5.03;;
8333;SDS011;4204;43.004;23.052;2023-05-07T08:54:27;5.67;;;5.10;;
8333;SDS011;4204;43.004;23.052;2023-05-07T08:56:55;5.67;;;4.60;;
8333;SDS011;4204;43.004;23.052;2023-05-07T08:59:23;5.73;;;5.13;;
8333;SDS011;4204;43.004;23.052;2023-05-07T09:01:50;5.10;;;4.60;;
8333;SDS011;4204;43.004;23.052;2023-05-07T09:04:18;7.03;;;4.50;;
8333;SDS011;4204;43.004;23.052;2023-05-07T09:06:46;5.77;;;4.37;;
8333;SDS011;4204;43.004;23.052;2023-05-07T09:09:16;5.30;;;4.80;;
8333;SDS011;4204;43.004;23.052;2023-05-07T09:11:44;5.80;;;5.17;;
8333;SDS011;4204;43.004;23.052;2023-05-07T09:14:14;4.80;;;4.40;;
8333;SDS011;4204;43.004;23.052;2023-05-07T09:16:43;5.17;;;4.57;;
8333;SDS011;4204;43.004;23.052;2023-05-07T09:19:11;5.80;;;4.53;;
8333;SDS011;4204;43.004;23.052;2023-05-07T09:21:42;5.20;;;4.67;;
8333;SDS011;4204;43.004;23.052;2023-05-07T09:24:11;5.00;;;4.50;;
8333;SDS011;4204;43.004;23.052;2023-05-07T09:26:42;4.77;;;4.27;;
8333;SDS011;4204;43.004;23.052;2023-05-07T09:29:10;8.13;;;4.83;;
8333;SDS011;4204;43.004;23.052;2023-05-07T09:31:38;4.70;;;4.30;;
8333;SDS011;4204;43.004;23.052;2023-05-07T09:34:07;4.80;;;4.20;;
8333;SDS011;4204;43.004;23.052;2023-05-07T09:36:37;4.97;;;4.47;;
8333;SDS011;4204;43.004;23.052;2023-05-07T09:39:04;5.60;;;4.53;;
8333;SDS011;4204;43.004;23.052;2023-05-07T09:41:32;4.70;;;4.30;;
8333;SDS011;4204;43.004;23.052;2023-05-07T09:44:08;4.97;;;4.57;;
8333;SDS011;4204;43.004;23.052;2023-05-07T09:46:42;4.93;;;4.07;;
8333;SDS011;4204;43.004;23.052;2023-05-07T09:49:19;4.70;;;4.20;;
8333;SDS011;4204;43.004;23.052;2023-05-07T09:51:49;3.83;;;3.53;;
8333;SDS011;4204;43.004;23.052;2023-05-07T09:54:17;4.37;;;3.97;;
8333;SDS011;4204;43.004;23.052;2023-05-07T09:56:48;5.93;;;4.23;;
8333;SDS011;4204;43.004;23.052;2023-05-07T09:59:18;4.10;;;3.70;;
8333;SDS011;4204;43.004;23.052;2023-05-07T10:01:47;4.27;;;3.87;;
8333;SDS011;4204;43.004;23.052;2023-05-07T10:04:15;5.43;;;4.33;;
8333;SDS011;4204;43.004;23.052;2023-05-07T10:06:44;4.40;;;4.00;;
8333;SDS011;4204;43.004;23.052;2023-05-07T10:09:12;4.20;;;3.80;;
8333;SDS011;4204;43.004;23.052;2023-05-07T10:11:41;4.50;;;4.10;;
8333;SDS011;4204;43.004;23.052;2023-05-07T10:14:09;4.63;;;3.83;;
8333;SDS011;4204;43.004;23.052;2023-05-07T10:16:38;4.60;;;4.20;;
8333;SDS011;4204;43.004;23.052;2023-05-07T10:19:11;5.17;;;4.67;;
8333;SDS011;4204;43.004;23.052;2023-05-07T10:21:43;4.57;;;4.17;;
8333;SDS011;4204;43.004;23.052;2023-05-07T10:24:12;5.23;;;3.93;;
8333;SDS011;4204;43.004;23.052;2023-05-07T10:26:44;4.17;;;3.87;;
8333;SDS011;4204;43.004;23.052;2023-05-07T10:29:14;4.63;;;4.20;;
8333;SDS011;4204;43.004;23.052;2023-05-07T10:31:51;4.47;;;4.07;;
8333;SDS011;4204;43.004;23.052;2023-05-07T10:34:21;6.23;;;3.63;;
8333;SDS011;4204;43.004;23.052;2023-05-07T10:36:49;5.30;;;3.90;;
8333;SDS011;4204;43.004;23.052;2023-05-07T10:39:18;4.40;;;4.00;;
8333;SDS011;4204;43.004;23.052;2023-05-07T10:41:46;5.07;;;3.83;;
8333;SDS011;4204;43.004;23.052;2023-05-07T10:44:24;3.90;;;3.50;;
8333;SDS011;4204;43.004;23.052;2023-05-07T10:47:04;3.80;;;3.40;;
8333;SDS011;4204;43.004;23.052;2023-05-07T10:49:31;3.80;;;3.50;;
8333;SDS011;4204;43.004;23.052;2023-05-07T10:52:13;6.80;;;3.70;;
8333;SDS011;4204;43.004;23.052;2023-05-07T10:54:47;4.97;;;3.57;;
8333;SDS011;4204;43.004;23.052;2023-05-07T10:57:34;4.47;;;3.57;;
8333;SDS011;4204;43.004;23.052;2023-05-07T11:00:41;5.40;;;3.80;;
8333;SDS011;4204;43.004;23.052;2023-05-07T11:03:17;5.27;;;4.47;;
8333;SDS011;4204;43.004;23.052;2023-05-07T11:06:08;4.63;;;4.10;;
8333;SDS011;4204;43.004;23.052;2023-05-07T11:11:44;5.70;;;4.07;;
8333;SDS011;4204;43.004;23.052;2023-05-07T11:14:17;4.40;;;4.00;;
8333;SDS011;4204;43.004;23.052;2023-05-07T11:17:08;4.50;;;4.10;;
8333;SDS011;4204;43.004;23.052;2023-05-07T11:22:39;3.90;;;3.50;;
8333;SDS011;4204;43.004;23.052;2023-05-07T11:25:16;3.67;;;3.40;;
8333;SDS011;4204;43.004;23.052;2023-05-07T11:27:44;4.00;;;3.20;;
8333;SDS011;4204;43.004;23.052;2023-05-07T11:30:16;15.33;;;4.17;;
8333;SDS011;4204;43.004;23.052;2023-05-07T11:32:46;10.23;;;3.87;;
8333;SDS011;4204;43.004;23.052;2023-05-07T11:35:15;7.07;;;5.00;;
8333;SDS011;4204;43.004;23.052;2023-05-07T11:37:46;6.63;;;5.40;;
8333;SDS011;4204;43.004;23.052;2023-05-07T11:40:14;4.80;;;3.67;;
8333;SDS011;4204;43.004;23.052;2023-05-07T11:42:42;3.73;;;3.20;;
8333;SDS011;4204;43.004;23.052;2023-05-07T11:45:09;3.37;;;3.07;;
8333;SDS011;4204;43.004;23.052;2023-05-07T11:47:37;3.27;;;2.90;;
8333;SDS011;4204;43.004;23.052;2023-05-07T11:50:07;3.40;;;3.10;;
8333;SDS011;4204;43.004;23.052;2023-05-07T11:52:36;4.00;;;3.27;;
8333;SDS011;4204;43.004;23.052;2023-05-07T11:55:06;3.60;;;3.30;;
8333;SDS011;4204;43.004;23.052;2023-05-07T11:57:34;3.60;;;3.30;;
8333;SDS011;4204;43.004;23.052;2023-05-07T12:00:02;3.60;;;3.30;;
8333;SDS011;4204;43.004;23.052;2023-05-07T12:02:38;4.63;;;3.50;;
8333;SDS011;4204;43.004;23.052;2023-05-07T12:05:06;3.80;;;3.40;;
8333;SDS011;4204;43.004;23.052;2023-05-07T12:07:33;4.33;;;3.50;;
8333;SDS011;4204;43.004;23.052;2023-05-07T12:10:03;3.63;;;3.23;;
8333;SDS011;4204;43.004;23.052;2023-05-07T12:12:32;4.07;;;3.60;;
8333;SDS011;4204;43.004;23.052;2023-05-07T12:15:05;4.00;;;3.50;;
8333;SDS011;4204;43.004;23.052;2023-05-07T12:17:32;3.70;;;3.40;;
8333;SDS011;4204;43.004;23.052;2023-05-07T12:19:59;3.67;;;3.37;;
8333;SDS011;4204;43.004;23.052;2023-05-07T12:22:27;4.17;;;3.40;;
8333;SDS011;4204;43.004;23.052;2023-05-07T12:24:56;3.83;;;3.43;;
8333;SDS011;4204;43.004;23.052;2023-05-07T12:27:25;5.90;;;3.33;;
8333;SDS011;4204;43.004;23.052;2023-05-07T12:29:54;5.13;;;3.67;;
8333;SDS011;4204;43.004;23.052;2023-05-07T12:32:21;3.53;;;3.23;;
8333;SDS011;4204;43.004;23.052;2023-05-07T12:34:49;4.20;;;3.80;;
8333;SDS011;4204;43.004;23.052;2023-05-07T12:37:22;5.60;;;3.60;;
8333;SDS011;4204;43.004;23.052;2023-05-07T12:39:49;4.23;;;3.70;;
8333;SDS011;4204;43.004;23.052;2023-05-07T12:42:19;4.53;;;4.13;;
8333;SDS011;4204;43.004;23.052;2023-05-07T12:44:49;4.43;;;3.93;;
8333;SDS011;4204;43.004;23.052;2023-05-07T12:47:17;4.83;;;3.43;;
8333;SDS011;4204;43.004;23.052;2023-05-07T12:49:45;4.07;;;3.77;;
8333;SDS011;4204;43.004;23.052;2023-05-07T12:52:12;3.60;;;3.30;;
8333;SDS011;4204;43.004;23.052;2023-05-07T12:54:40;4.47;;;4.07;;
8333;SDS011;4204;43.004;23.052;2023-05-07T12:57:08;4.47;;;4.07;;
8333;SDS011;4204;43.004;23.052;2023-05-07T12:59:36;3.90;;;3.60;;
8333;SDS011;4204;43.004;23.052;2023-05-07T13:02:04;6.60;;;3.67;;
8333;SDS011;4204;43.004;23.052;2023-05-07T13:04:33;4.90;;;3.43;;
8333;SDS011;4204;43.004;23.052;2023-05-07T13:07:00;3.37;;;3.07;;
8333;SDS011;4204;43.004;23.052;2023-05-07T13:09:28;5.73;;;3.70;;
8333;SDS011;4204;43.004;23.052;2023-05-07T13:11:55;6.90;;;3.67;;
8333;SDS011;4204;43.004;23.052;2023-05-07T13:14:25;3.60;;;3.30;;
8333;SDS011;4204;43.004;23.052;2023-05-07T13:16:53;3.43;;;3.13;;
8333;SDS011;4204;43.004;23.052;2023-05-07T13:19:20;4.37;;;3.47;;
8333;SDS011;4204;43.004;23.052;2023-05-07T13:21:48;4.13;;;3.20;;
8333;SDS011;4204;43.004;23.052;2023-05-07T13:24:16;3.80;;;3.50;;
8333;SDS011;4204;43.004;23.052;2023-05-07T13:26:43;3.60;;;3.30;;
8333;SDS011;4204;43.004;23.052;2023-05-07T13:29:11;4.03;;;2.97;;
8333;SDS011;4204;43.004;23.052;2023-05-07T13:31:38;3.80;;;3.50;;
8333;SDS011;4204;43.004;23.052;2023-05-07T13:34:08;3.70;;;3.40;;
8333;SDS011;4204;43.004;23.052;2023-05-07T13:36:35;4.50;;;3.40;;
8333;SDS011;4204;43.004;23.052;2023-05-07T13:39:07;4.00;;;3.63;;
8333;SDS011;4204;43.004;23.052;2023-05-07T13:41:34;4.60;;;3.57;;
8333;SDS011;4204;43.004;23.052;2023-05-07T13:44:02;5.93;;;3.60;;
8333;SDS011;4204;43.004;23.052;2023-05-07T13:46:29;3.87;;;3.57;;
8333;SDS011;4204;43.004;23.052;2023-05-07T13:48:57;4.13;;;3.60;;
8333;SDS011;4204;43.004;23.052;2023-05-07T13:51:24;5.80;;;4.17;;
8333;SDS011;4204;43.004;23.052;2023-05-07T13:53:51;4.63;;;4.23;;
8333;SDS011;4204;43.004;23.052;2023-05-07T13:56:21;4.87;;;4.27;;
8333;SDS011;4204;43.004;23.052;2023-05-07T13:58:48;4.87;;;4.47;;
8333;SDS011;4204;43.004;23.052;2023-05-07T14:01:16;5.13;;;4.63;;
8333;SDS011;4204;43.004;23.052;2023-05-07T14:03:43;4.40;;;3.93;;
8333;SDS011;4204;43.004;23.052;2023-05-07T14:06:10;4.20;;;3.80;;
8333;SDS011;4204;43.004;23.052;2023-05-07T14:08:37;5.27;;;4.10;;
8333;SDS011;4204;43.004;23.052;2023-05-07T14:11:05;5.47;;;4.00;;
8333;SDS011;4204;43.004;23.052;2023-05-07T14:13:33;6.60;;;4.10;;
8333;SDS011;4204;43.004;23.052;2023-05-07T14:16:01;4.90;;;4.20;;
8333;SDS011;4204;43.004;23.052;2023-05-07T14:18:28;4.60;;;4.20;;
8333;SDS011;4204;43.004;23.052;2023-05-07T14:20:55;8.07;;;4.23;;
8333;SDS011;4204;43.004;23.052;2023-05-07T14:23:23;7.90;;;4.50;;
8333;SDS011;4204;43.004;23.052;2023-05-07T14:25:52;7.00;;;3.80;;
8333;SDS011;4204;43.004;23.052;2023-05-07T14:28:19;4.63;;;3.83;;
8333;SDS011;4204;43.004;23.052;2023-05-07T14:30:48;4.17;;;3.77;;
8333;SDS011;4204;43.004;23.052;2023-05-07T14:33:15;4.90;;;4.30;;
8333;SDS011;4204;43.004;23.052;2023-05-07T14:35:43;4.83;;;4.33;;
8333;SDS011;4204;43.004;23.052;2023-05-07T14:38:13;5.20;;;3.70;;
8333;SDS011;4204;43.004;23.052;2023-05-07T14:40:41;3.90;;;3.60;;
8333;SDS011;4204;43.004;23.052;2023-05-07T14:43:08;7.17;;;4.47;;
8333;SDS011;4204;43.004;23.052;2023-05-07T14:45:35;5.00;;;4.57;;
8333;SDS011;4204;43.004;23.052;2023-05-07T14:48:04;4.87;;;4.30;;
8333;SDS011;4204;43.004;23.052;2023-05-07T14:50:31;4.73;;;4.23;;
8333;SDS011;4204;43.004;23.052;2023-05-07T14:52:58;4.77;;;4.37;;
8333;SDS011;4204;43.004;23.052;2023-05-07T14:55:26;4.63;;;4.13;;
8333;SDS011;4204;43.004;23.052;2023-05-07T14:57:55;4.87;;;4.30;;
8333;SDS011;4204;43.004;23.052;2023-05-07T15:00:22;4.50;;;4.10;;
8333;SDS011;4204;43.004;23.052;2023-05-07T15:02:49;4.70;;;4.20;;
8333;SDS011;4204;43.004;23.052;2023-05-07T15:05:18;5.77;;;4.43;;
8333;SDS011;4204;43.004;23.052;2023-05-07T15:07:46;4.20;;;3.80;;
8333;SDS011;4204;43.004;23.052;2023-05-07T15:10:13;4.50;;;4.10;;
8333;SDS011;4204;43.004;23.052;2023-05-07T15:12:40;4.10;;;3.70;;
8333;SDS011;4204;43.004;23.052;2023-05-07T15:15:08;5.00;;;4.20;;
8333;SDS011;4204;43.004;23.052;2023-05-07T15:17:36;3.97;;;3.40;;
8333;SDS011;4204;43.004;23.052;2023-05-07T15:20:03;6.67;;;4.47;;